Time;durP1;ratioP1;P1;durP2;ratioP2;P2;SDS_P1;SDS_P2;PMS_P1;PMS_P2;Temp;Humidity;BMP_temperature;BMP_pressure;BME280_temperature;BME280_humidity;BME280_pressure;Samples;Min_cycle;Max_cycle;Signal;HPM_P1;HPM_P2
2024/02/29 00:12:21;;;;;;;57.80;21.90;;;;;;;8.18;97.56;101070.39;681582;1267;139172;-78
2024/02/29 00:27:25;;;;;;;40.30;19.90;;;;;;;8.06;97.75;101059.30;681734;1267;138933;-78
2024/02/29 00:42:29;;;;;;;59.00;26.00;;;;;;;7.86;97.77;101056.61;681690;1265;139716;-78
2024/02/29 00:57:33;;;;;;;50.80;22.10;;;;;;;7.76;98.02;101055.33;681709;1265;139721;-78
2024/02/29 01:12:41;;;;;;;46.20;19.90;;;;;;;7.54;98.84;101044.88;681591;1262;139603;-78
2024/02/29 01:27:45;;;;;;;50.50;19.80;;;;;;;7.47;98.85;101038.11;681623;1268;139055;-78
2024/02/29 01:42:48;;;;;;;43.00;19.70;;;;;;;7.44;98.96;101033.11;681473;1267;139553;-78
2024/02/29 01:57:53;;;;;;;39.20;17.00;;;;;;;7.44;98.71;101040.96;681666;1263;139676;-78
2024/02/29 02:12:56;;;;;;;40.40;17.30;;;;;;;7.34;98.50;101051.11;681674;1268;139511;-78
2024/02/29 02:28:00;;;;;;;93.90;36.30;;;;;;;7.34;99.05;101045.61;682092;1265;140742;-78
2024/02/29 02:43:04;;;;;;;33.20;17.60;;;;;;;7.39;99.20;101033.48;681768;1267;139461;-78
2024/02/29 02:58:09;;;;;;;30.80;15.30;;;;;;;7.37;99.06;101022.96;681676;1265;139952;-78
2024/02/29 03:13:13;;;;;;;36.10;16.30;;;;;;;7.42;99.17;101028.52;681731;1265;138761;-78
2024/02/29 03:28:17;;;;;;;58.10;21.20;;;;;;;7.38;98.71;101039.44;681598;1268;140217;-79
2024/02/29 03:43:21;;;;;;;45.50;21.30;;;;;;;7.23;98.35;101034.95;681590;1276;139537;-78
2024/02/29 03:58:24;;;;;;;46.00;19.00;;;;;;;7.40;98.28;101032.34;681471;1273;182735;-79
2024/02/29 04:13:29;;;;;;;39.20;18.30;;;;;;;7.48;98.67;101028.48;681636;1265;140348;-78
2024/02/29 04:28:33;;;;;;;50.90;23.20;;;;;;;7.55;98.52;101019.60;681625;1262;139002;-79
2024/02/29 04:43:39;;;;;;;41.40;18.40;;;;;;;7.46;98.47;101014.88;681427;1266;139464;-79
2024/02/29 04:58:42;;;;;;;44.40;19.60;;;;;;;7.45;98.59;101011.63;681839;1265;138852;-80
2024/02/29 05:13:46;;;;;;;45.00;17.80;;;;;;;7.38;98.64;101007.23;681615;1262;139840;-79
2024/02/29 05:28:52;;;;;;;37.50;17.10;;;;;;;7.41;98.77;101019.23;681699;1266;139222;-80
2024/02/29 05:43:56;;;;;;;53.60;22.30;;;;;;;7.42;99.16;101030.66;681682;1267;138890;-79
2024/02/29 05:59:04;;;;;;;59.50;24.50;;;;;;;7.52;99.08;101032.31;681665;1265;138607;-78
2024/02/29 06:14:09;;;;;;;77.40;31.20;;;;;;;7.39;99.11;101034.67;681399;1265;138844;-78
2024/02/29 06:29:14;;;;;;;75.80;33.40;;;;;;;7.49;99.65;101046.73;681567;1266;138913;-78
2024/02/29 06:44:22;;;;;;;82.00;40.20;;;;;;;7.74;99.95;101032.48;681758;1267;138670;-79
2024/02/29 06:59:25;;;;;;;104.60;39.50;;;;;;;7.97;99.96;101030.42;681605;1264;139488;-79
2024/02/29 07:14:31;;;;;;;84.10;39.40;;;;;;;9.33;99.92;101035.95;681639;1264;139902;-79
2024/02/29 07:29:36;;;;;;;102.00;39.90;;;;;;;9.94;98.44;101038.07;681610;1266;141113;-79
2024/02/29 07:44:42;;;;;;;60.70;29.80;;;;;;;9.26;96.62;101040.97;681633;1262;139201;-76
2024/02/29 07:59:46;;;;;;;40.40;18.70;;;;;;;9.59;97.07;101037.98;681625;1261;139442;-78
2024/02/29 08:14:51;;;;;;;40.60;21.30;;;;;;;9.52;95.80;101045.39;681724;1262;139157;-76
2024/02/29 08:29:57;;;;;;;36.10;18.40;;;;;;;9.43;96.28;101043.24;681633;1262;143200;-76
2024/02/29 08:45:03;;;;;;;145.10;64.50;;;;;;;9.67;95.24;101030.58;681641;1262;139688;-77
2024/02/29 09:00:07;;;;;;;42.70;22.50;;;;;;;10.07;95.15;101012.95;681725;1263;139227;-78
2024/02/29 09:15:21;;;;;;;34.60;15.90;;;;;;;10.79;92.86;101012.15;681626;1262;139444;-78
2024/02/29 09:30:25;;;;;;;31.20;18.70;;;;;;;10.61;91.13;101004.90;681859;1264;142045;-78
2024/02/29 09:45:34;;;;;;;79.40;27.50;;;;;;;10.92;89.55;101004.84;681749;1262;140308;-78
2024/02/29 10:00:38;;;;;;;31.30;16.70;;;;;;;10.63;88.02;101012.48;681650;1262;139868;-78
2024/02/29 10:15:42;;;;;;;34.30;20.00;;;;;;;10.47;87.68;101015.75;681777;1262;138881;-78
2024/02/29 10:30:56;;;;;;;124.70;45.60;;;;;;;10.95;87.25;101000.56;681749;1262;139954;-79
2024/02/29 10:46:04;;;;;;;527.00;204.70;;;;;;;10.96;87.53;100985.48;681985;1261;140946;-79
2024/02/29 11:01:09;;;;;;;54.80;21.70;;;;;;;10.96;87.73;100977.05;682279;1266;139840;-79
2024/02/29 11:16:14;;;;;;;254.10;103.90;;;;;;;10.62;88.40;100972.16;682222;1265;139596;-79
2024/02/29 11:31:20;;;;;;;45.80;18.60;;;;;;;10.65;88.45;100955.31;682152;1262;139304;-78
2024/02/29 11:46:26;;;;;;;99.40;43.40;;;;;;;10.83;88.10;100943.04;682222;1262;139740;-79
2024/02/29 12:01:31;;;;;;;26.30;12.70;;;;;;;10.92;87.28;100924.70;681780;1262;139870;-79
2024/02/29 12:16:37;;;;;;;26.30;14.60;;;;;;;10.94;86.08;100906.35;681562;1262;139305;-80
2024/02/29 12:31:41;;;;;;;29.80;16.50;;;;;;;11.14;85.75;100899.14;681265;1266;138875;-79
2024/02/29 12:46:55;;;;;;;44.90;21.90;;;;;;;11.08;85.05;100880.75;681470;1271;140895;-79
2024/02/29 13:02:09;;;;;;;28.90;15.10;;;;;;;11.48;85.46;100848.21;681515;1262;139828;-79
2024/02/29 13:17:13;;;;;;;86.10;27.60;;;;;;;11.69;84.74;100837.89;681618;1262;139763;-79
2024/02/29 13:32:18;;;;;;;203.10;75.40;;;;;;;11.86;84.51;100818.11;681620;1265;140799;-79
2024/02/29 13:47:23;;;;;;;42.10;23.50;;;;;;;11.74;84.92;100805.77;681546;1262;141104;-79
2024/02/29 14:02:26;;;;;;;267.10;88.40;;;;;;;11.85;84.97;100797.64;681847;1262;140436;-80
2024/02/29 14:17:31;;;;;;;45.50;21.20;;;;;;;12.15;84.78;100779.73;681651;1263;139199;-80
2024/02/29 14:32:36;;;;;;;60.20;23.60;;;;;;;12.23;84.39;100768.86;681686;1262;140279;-79
2024/02/29 14:47:42;;;;;;;47.40;20.90;;;;;;;12.33;84.59;100761.11;681601;1266;140827;-79
2024/02/29 15:02:47;;;;;;;89.10;39.40;;;;;;;12.21;84.77;100747.96;681682;1262;139150;-80
2024/02/29 15:17:52;;;;;;;67.70;29.10;;;;;;;12.14;85.27;100730.16;681487;1263;140416;-80
2024/02/29 15:32:56;;;;;;;132.60;60.80;;;;;;;11.96;85.40;100715.55;681763;1265;139077;-80
2024/02/29 15:48:00;;;;;;;38.00;17.10;;;;;;;11.75;85.80;100696.48;681404;1267;238851;-80
2024/02/29 16:03:05;;;;;;;291.10;86.60;;;;;;;11.63;86.18;100689.15;681785;1265;139342;-78
2024/02/29 16:18:23;;;;;;;116.20;44.70;;;;;;;11.55;86.37;100684.23;681664;1265;139151;-80
2024/02/29 16:33:28;;;;;;;110.30;44.40;;;;;;;11.43;86.89;100667.73;681575;1267;139265;-80
2024/02/29 16:48:31;;;;;;;62.70;31.70;;;;;;;11.28;87.73;100666.71;681508;1267;139923;-79
2024/02/29 17:03:35;;;;;;;32.70;19.90;;;;;;;11.23;88.13;100665.71;681403;1267;140357;-80
2024/02/29 17:18:39;;;;;;;31.60;16.50;;;;;;;11.10;90.21;100671.02;681305;1265;139561;-78
2024/02/29 17:33:43;;;;;;;35.70;18.60;;;;;;;11.17;91.56;100668.51;681248;1268;140194;-78
2024/02/29 17:48:48;;;;;;;354.10;149.00;;;;;;;11.12;93.16;100669.48;681803;1263;138849;-80
2024/02/29 18:03:52;;;;;;;60.40;28.00;;;;;;;11.07;93.87;100671.30;681619;1265;140806;-79
2024/02/29 18:18:55;;;;;;;62.60;25.70;;;;;;;10.97;95.86;100664.08;681908;1265;137937;-79
2024/02/29 18:33:59;;;;;;;68.60;29.10;;;;;;;10.98;96.20;100658.88;681996;1265;140252;-78
2024/02/29 18:49:03;;;;;;;46.30;23.40;;;;;;;10.88;96.86;100652.02;682102;1263;138824;-78
2024/02/29 19:04:06;;;;;;;42.90;22.30;;;;;;;10.78;97.30;100634.85;681942;1266;139635;-79
2024/02/29 19:19:12;;;;;;;35.30;18.70;;;;;;;10.65;98.16;100613.73;682027;1268;139761;-78
2024/02/29 19:34:16;;;;;;;44.90;22.70;;;;;;;10.65;98.03;100595.64;681691;1268;140886;-79
2024/02/29 19:49:19;;;;;;;41.50;21.40;;;;;;;10.59;98.14;100581.80;681639;1263;138960;-79
2024/02/29 20:04:25;;;;;;;75.70;40.40;;;;;;;10.70;98.04;100571.11;681549;1266;140614;-79
2024/02/29 20:19:31;;;;;;;110.00;49.00;;;;;;;10.76;98.57;100562.75;681690;1265;140267;-79
2024/02/29 20:34:38;;;;;;;45.70;22.90;;;;;;;10.80;98.94;100545.95;681304;1265;140301;-79
2024/02/29 20:49:41;;;;;;;40.20;20.70;;;;;;;10.82;99.50;100531.59;681443;1263;139752;-80
2024/02/29 21:04:45;;;;;;;80.00;35.50;;;;;;;10.85;99.51;100533.83;681341;1274;140518;-79
2024/02/29 21:19:49;;;;;;;54.50;24.10;;;;;;;10.98;99.49;100518.59;681318;1264;139130;-80
2024/02/29 21:34:53;;;;;;;52.50;24.30;;;;;;;11.06;99.77;100509.45;681417;1265;140024;-80
2024/02/29 21:49:57;;;;;;;45.70;23.30;;;;;;;11.13;99.75;100495.21;681521;1266;139008;-79
2024/02/29 22:05:00;;;;;;;44.40;21.50;;;;;;;11.24;99.83;100476.28;681609;1266;139025;-79
2024/02/29 22:20:07;;;;;;;44.30;20.70;;;;;;;11.24;99.85;100461.74;681623;1263;139033;-79
2024/02/29 22:35:10;;;;;;;49.20;23.20;;;;;;;11.28;99.84;100459.20;681065;1268;142371;-79
2024/02/29 22:50:15;;;;;;;51.70;23.20;;;;;;;11.16;100.00;100458.36;681432;1264;139522;-79
2024/02/29 23:05:18;;;;;;;45.80;22.50;;;;;;;11.15;100.00;100441.85;681407;1267;139468;-78
2024/02/29 23:20:24;;;;;;;43.00;20.40;;;;;;;11.12;100.00;100437.70;681408;1264;140463;-78
2024/02/29 23:35:27;;;;;;;49.00;22.30;;;;;;;11.08;100.00;100425.42;681101;1264;139355;-79
2024/02/29 23:50:30;;;;;;;41.60;20.20;;;;;;;11.04;100.00;100407.97;681483;1264;140573;-79
